Randolph Air Force Base
KRND : now visible

Airfield :











YOU CAN JOIN US ON...

 
LOGIN :

Register | Disclaimer

   EN    FR    IT 

 









Legend :    VFR   Marginal VFR   IFR   Intensive IFR   Very Intensive IFR
Visi :
Ceiling :
>= 8 km
>= 3000ft
5 to 8 km
1000 to 3000 ft
1500m to 5 km
500 to 1000 ft
800 to 1500m
200 to 500 ft
< 800m
< 200 ft
Symbols :   Thunderstorms  Fog  Heavy snow  Heavy precipitations  Wind > 20 kt






- Airport Elevation : 761 ft


KRND - Randolph Air Force Base

CURRENT METAR :
  • 282256Z AUTO 30017KT 10SM CLR 19/05 A2988 RMK AO2 PK WND 29027/04 SLP115 T01900047

EXPIRED METARs :
  • 282156Z AUTO 27017G23KT 10SM CLR 21/04 A2984 RMK AO2 PK WND 29028/50 SLP101 T02120043
  • 282129Z AUTO 30016G25KT 10SM CLR 22/04 A2983 RMK AO2 WSHFT 16 SLP097
  • 282056Z AUTO 27013G21KT 10SM CLR 22/03 A2983 RMK AO2 PK WND 23027/40 SLP097 T02180034 57030

TAF TAF KRND
Valid from the 28 at 18:00 until the 30 at 00:00 UTC


281800Z 2818/2924 25012KT 9999 BKN016 510009 QNH2988INS
BECMG 2818/2819 30015G25KT 9999 FEW040 510009 QNH2979INS
BECMG 2905/2906 33012KT 9999 SCT025 QNH2990INS
BECMG 2911/2912 34012G18KT 9999 SCT020 QNH2996INS TX20/2820Z TN06/2910Z LAST NO AMDS 2901 NEXT 2910



MET'MAP, your aeronautical weather chart ! - Copyright ORBIFLY December 2007 - Disclaimer

ORBIFLY MET'MAP TEAM :

Programming & Development : Alexandra Zaïnal
Concept & original design : Baudouin d'Aumeries
Assistance for programming : Marc-Olivier Méhu
Technical & hardware support : Manuel Goepfert

Contact : metmap@orbifly.com




SOURCES & CREDITS :

   NOAA       Earth
Advisory